createdAt,value
2022-12-28T00:02:16.693Z,101304.44
2022-12-28T00:04:44.130Z,101295.16
2022-12-28T00:07:11.124Z,101290.44
2022-12-28T00:09:38.108Z,101294.88
2022-12-28T00:12:05.693Z,101289.69
2022-12-28T00:14:32.721Z,101284.41
2022-12-28T00:17:01.965Z,101277.63
2022-12-28T00:19:29.249Z,101278.53
2022-12-28T00:21:56.227Z,101269.81
2022-12-28T00:24:25.359Z,101270.31
2022-12-28T00:26:56.813Z,101270.19
2022-12-28T00:29:23.786Z,101265.72
2022-12-28T00:31:53.031Z,101268.50
2022-12-28T00:34:20.098Z,101254.09
2022-12-28T00:37:11.204Z,101256.84
2022-12-28T00:39:41.625Z,101259.88
2022-12-28T00:42:11.354Z,101247.19
2022-12-28T00:44:38.738Z,101251.53
2022-12-28T00:47:11.139Z,101242.19
2022-12-28T00:49:37.989Z,101230.50
2022-12-28T00:52:05.141Z,101225.91
2022-12-28T00:54:34.179Z,101224.59
2022-12-28T00:57:01.183Z,101215.25
2022-12-28T00:59:28.154Z,101215.06
2022-12-28T01:01:55.644Z,101215.66
2022-12-28T01:04:22.870Z,101223.06
2022-12-28T01:06:49.754Z,101211.50
2022-12-28T01:09:18.871Z,101207.03
2022-12-28T01:11:45.784Z,101207.97
2022-12-28T01:14:12.907Z,101206.13
2022-12-28T01:16:42.156Z,101209.78
2022-12-28T01:19:22.613Z,101201.53
2022-12-28T01:21:51.695Z,101197.06
2022-12-28T01:24:21.286Z,101198.22
2022-12-28T01:26:51.169Z,101181.13
2022-12-28T01:29:21.559Z,101178.78
2022-12-28T01:31:48.942Z,101174.06
2022-12-28T01:34:16.231Z,101175.97
2022-12-28T01:36:48.546Z,101171.56
2022-12-28T01:39:18.907Z,101163.81
2022-12-28T01:41:46.343Z,101161.75
2022-12-28T01:44:13.856Z,101153.63
2022-12-28T01:47:10.960Z,101150.09
2022-12-28T01:50:07.117Z,101144.84
2022-12-28T01:52:40.639Z,101136.28
2022-12-28T01:55:14.262Z,101132.19
2022-12-28T01:57:55.716Z,101122.50
2022-12-28T02:00:23.244Z,101123.50
2022-12-28T02:03:20.517Z,101118.09
2022-12-28T02:05:51.669Z,101103.84
2022-12-28T02:09:10.609Z,101089.69
2022-12-28T02:11:41.640Z,101083.56
2022-12-28T02:14:09.758Z,101080.63
2022-12-28T02:16:39.318Z,101074.47
2022-12-28T02:19:10.033Z,101067.03
2022-12-28T02:21:43.151Z,101065.38
2022-12-28T02:24:44.067Z,101044.59
2022-12-28T02:27:32.352Z,101049.97
2022-12-28T02:30:11.472Z,101040.47
2022-12-28T02:32:56.514Z,101035.72
2022-12-28T02:35:35.428Z,101025.75
2022-12-28T02:38:14.584Z,101041.13
2022-12-28T02:40:48.974Z,101026.47
2022-12-28T02:43:18.804Z,101029.69
2022-12-28T02:46:06.503Z,101028.13
2022-12-28T02:49:05.528Z,101049.06
2022-12-28T02:52:21.564Z,101016.91
2022-12-28T02:55:28.990Z,101027.47
2022-12-28T02:58:29.189Z,101018.63
2022-12-28T03:01:11.227Z,101010.66
2022-12-28T03:04:07.943Z,100992.03
2022-12-28T03:07:09.545Z,100996.88
2022-12-28T03:10:21.743Z,101000.81
2022-12-28T03:13:01.496Z,101000.03
2022-12-28T03:15:35.896Z,100993.16
2022-12-28T03:18:31.906Z,100997.59
2022-12-28T03:21:23.565Z,100983.25
2022-12-28T03:24:11.783Z,100979.47
2022-12-28T03:27:04.962Z,100969.31
2022-12-28T03:30:01.098Z,100986.31
2022-12-28T03:32:28.519Z,100967.44
2022-12-28T03:34:57.999Z,100962.34
2022-12-28T03:37:25.936Z,100964.91
2022-12-28T03:40:12.326Z,100971.56
2022-12-28T03:43:10.646Z,100950.03
2022-12-28T03:45:57.965Z,100941.53
2022-12-28T03:48:25.790Z,100933.78
2022-12-28T03:50:54.039Z,100930.94
2022-12-28T03:53:30.498Z,100939.94
2022-12-28T03:56:22.363Z,100918.44
2022-12-28T03:58:49.638Z,100920.69
2022-12-28T04:01:16.969Z,100913.38
2022-12-28T04:03:44.225Z,100907.41
2022-12-28T04:06:20.674Z,100896.25
2022-12-28T04:08:47.871Z,100896.03
2022-12-28T04:11:17.071Z,100882.97
2022-12-28T04:13:46.877Z,100887.72
2022-12-28T04:16:14.899Z,100866.25
2022-12-28T04:18:42.405Z,100865.84
2022-12-28T04:21:12.997Z,100873.22
2022-12-28T04:23:39.988Z,100858.94
2022-12-28T04:26:14.226Z,100848.00
2022-12-28T04:28:42.177Z,100849.53
2022-12-28T04:31:13.367Z,100835.63
2022-12-28T04:33:41.044Z,100827.50
2022-12-28T04:36:14.930Z,100819.97
2022-12-28T04:38:42.522Z,100822.88
2022-12-28T04:41:13.923Z,100825.31
2022-12-28T04:43:43.516Z,100809.63
2022-12-28T04:46:18.362Z,100802.09
2022-12-28T04:48:45.317Z,100798.88
2022-12-28T04:51:27.264Z,100796.81
2022-12-28T04:53:56.025Z,100777.13
2022-12-28T04:56:24.685Z,100774.09
2022-12-28T04:59:00.641Z,100778.47
2022-12-28T05:01:27.975Z,100770.31
2022-12-28T05:03:59.301Z,100761.53
2022-12-28T05:06:27.733Z,100755.44
2022-12-28T05:08:56.937Z,100755.50
2022-12-28T05:11:27.934Z,100763.75
2022-12-28T05:13:57.651Z,100758.38
2022-12-28T05:16:27.026Z,100743.69
2022-12-28T05:18:59.030Z,100739.84
2022-12-28T05:21:28.675Z,100734.56
2022-12-28T05:23:57.335Z,100712.56
2022-12-28T05:26:27.699Z,100716.81
2022-12-28T05:28:55.894Z,100734.28
2022-12-28T05:31:24.095Z,100719.00
2022-12-28T05:33:54.391Z,100706.31
2022-12-28T05:36:27.161Z,100697.56
2022-12-28T05:38:58.647Z,100697.06
2022-12-28T05:41:29.659Z,100685.44
2022-12-28T05:44:04.684Z,100681.78
2022-12-28T05:46:34.860Z,100678.88
2022-12-28T05:49:02.302Z,100684.00
2022-12-28T05:51:32.299Z,100680.91
2022-12-28T05:54:04.303Z,100663.91
2022-12-28T05:56:34.296Z,100665.88
2022-12-28T05:59:06.932Z,100665.94
2022-12-28T06:01:37.708Z,100662.69
2022-12-28T06:04:15.221Z,100662.66
2022-12-28T06:06:45.079Z,100652.88
2022-12-28T06:09:12.552Z,100657.16
2022-12-28T06:11:40.241Z,100661.41
2022-12-28T06:14:07.881Z,100645.00
2022-12-28T06:16:41.075Z,100660.16
2022-12-28T06:19:11.103Z,100642.44
2022-12-28T06:21:40.394Z,100650.13
2022-12-28T06:24:09.152Z,100642.22
2022-12-28T06:26:38.775Z,100626.94
2022-12-28T06:29:05.957Z,100637.34
2022-12-28T06:31:39.796Z,100619.03
2022-12-28T06:34:09.033Z,100640.25
2022-12-28T06:36:43.260Z,100616.59
2022-12-28T06:39:13.321Z,100610.63
2022-12-28T06:41:41.756Z,100612.34
2022-12-28T06:44:13.025Z,100595.81
2022-12-28T06:46:40.582Z,100605.97
2022-12-28T06:49:07.956Z,100591.13
2022-12-28T06:51:40.687Z,100570.34
2022-12-28T06:54:09.499Z,100580.09
2022-12-28T06:56:38.982Z,100591.00
2022-12-28T06:59:06.688Z,100580.25
2022-12-28T07:01:39.591Z,100582.78
2022-12-28T07:04:09.174Z,100584.50
2022-12-28T07:06:39.925Z,100570.47
2022-12-28T07:09:14.484Z,100562.69
2022-12-28T07:11:42.726Z,100551.38
2022-12-28T07:14:09.709Z,100551.94
2022-12-28T07:19:02.802Z,100565.53
2022-12-28T07:21:36.717Z,100551.34
2022-12-28T07:24:05.339Z,100555.06
2022-12-28T07:26:39.114Z,100561.81
2022-12-28T07:29:08.395Z,100544.84
2022-12-28T07:31:44.655Z,100551.06
2022-12-28T07:34:16.434Z,100553.31
2022-12-28T07:36:43.854Z,100556.31
2022-12-28T07:39:15.816Z,100543.97
2022-12-28T07:41:50.085Z,100539.75
2022-12-28T07:44:19.036Z,100547.53
2022-12-28T07:46:48.125Z,100533.91
2022-12-28T07:49:15.095Z,100534.78
2022-12-28T07:51:42.246Z,100530.47
2022-12-28T07:54:09.286Z,100534.34
2022-12-28T07:59:06.466Z,100517.59
2022-12-28T08:01:39.697Z,100531.84
2022-12-28T08:04:13.493Z,100515.34
2022-12-28T08:06:46.558Z,100515.06
2022-12-28T08:09:15.054Z,100526.19
2022-12-28T08:11:44.749Z,100519.22
2022-12-28T08:14:13.935Z,100531.56
2022-12-28T08:16:47.320Z,100528.31
2022-12-28T08:19:16.489Z,100533.41
2022-12-28T08:21:47.357Z,100535.47
2022-12-28T08:24:18.364Z,100526.00
2022-12-28T08:26:53.425Z,100515.19
2022-12-28T08:29:24.502Z,100524.28
2022-12-28T08:31:53.897Z,100525.66
2022-12-28T08:34:27.390Z,100527.69
2022-12-28T08:36:56.227Z,100525.72
2022-12-28T08:39:25.626Z,100519.91
2022-12-28T08:41:54.817Z,100520.94
2022-12-28T08:44:21.840Z,100525.28
2022-12-28T08:46:50.992Z,100522.53
2022-12-28T08:49:18.113Z,100514.31
2022-12-28T08:51:51.142Z,100518.34
2022-12-28T08:54:18.112Z,100523.94
2022-12-28T08:56:46.253Z,100517.75
2022-12-28T08:59:24.599Z,100527.47
2022-12-28T09:01:51.643Z,100531.72
2022-12-28T09:04:21.662Z,100527.63
2022-12-28T09:06:50.062Z,100523.69
2022-12-28T09:09:19.836Z,100523.22
2022-12-28T09:11:47.591Z,100521.94
2022-12-28T09:14:22.585Z,100527.34
2022-12-28T09:16:52.008Z,100519.53
2022-12-28T09:19:22.093Z,100528.72
2022-12-28T09:21:52.400Z,100523.47
2022-12-28T09:24:22.236Z,100521.41
2022-12-28T09:26:52.674Z,100526.09
2022-12-28T09:29:22.858Z,100529.38
2022-12-28T09:31:49.781Z,100525.47
2022-12-28T09:34:36.301Z,100526.84
2022-12-28T09:37:06.608Z,100530.22
2022-12-28T09:39:36.057Z,100516.38
2022-12-28T09:42:38.035Z,100514.72
2022-12-28T09:45:13.971Z,100519.38
2022-12-28T09:47:56.085Z,100509.34
2022-12-28T09:50:30.218Z,100518.50
2022-12-28T09:53:19.754Z,100519.94
2022-12-28T09:56:39.939Z,100525.78
2022-12-28T09:59:08.631Z,100523.06
2022-12-28T10:01:42.476Z,100519.38
2022-12-28T10:04:12.324Z,100527.41
2022-12-28T10:06:43.679Z,100517.34
2022-12-28T10:09:26.624Z,100518.25
2022-12-28T10:11:53.930Z,100522.59
2022-12-28T10:14:34.535Z,100522.63
2022-12-28T10:17:06.421Z,100517.97
2022-12-28T10:19:33.325Z,100517.56
2022-12-28T10:22:12.275Z,100522.53
2022-12-28T10:24:40.361Z,100516.75
2022-12-28T10:27:13.757Z,100519.09
2022-12-28T10:29:41.696Z,100510.84
2022-12-28T10:32:14.220Z,100500.38
2022-12-28T10:35:00.411Z,100498.88
2022-12-28T10:37:31.650Z,100502.03
2022-12-28T10:40:09.516Z,100499.34
2022-12-28T10:42:43.880Z,100498.66
2022-12-28T10:45:48.570Z,100492.09
2022-12-28T10:48:23.267Z,100501.06
2022-12-28T10:50:57.714Z,100493.69
2022-12-28T10:53:32.879Z,100489.28
2022-12-28T10:56:13.697Z,100494.47
2022-12-28T10:58:46.441Z,100489.78
2022-12-28T11:01:13.558Z,100496.34
2022-12-28T11:03:58.747Z,100506.25
2022-12-28T11:06:33.008Z,100493.31
2022-12-28T11:09:22.249Z,100488.69
2022-12-28T11:11:55.987Z,100481.56
2022-12-28T11:14:35.470Z,100497.03
2022-12-28T11:17:28.128Z,100493.03
2022-12-28T11:20:18.606Z,100490.91
2022-12-28T11:22:47.067Z,100497.88
2022-12-28T11:25:24.418Z,100495.47
2022-12-28T11:27:51.533Z,100489.06
2022-12-28T11:30:22.152Z,100481.63
2022-12-28T11:33:01.390Z,100484.84
2022-12-28T11:35:37.008Z,100483.34
2022-12-28T11:38:07.589Z,100486.22
2022-12-28T11:40:43.733Z,100484.91
2022-12-28T11:43:29.268Z,100473.25
2022-12-28T11:45:57.357Z,100472.66
2022-12-28T11:48:42.947Z,100466.44
2022-12-28T11:51:21.480Z,100470.00
2022-12-28T11:53:58.375Z,100470.16
2022-12-28T11:56:41.931Z,100470.13
2022-12-28T11:59:25.762Z,100466.13
2022-12-28T12:01:57.222Z,100462.72
2022-12-28T12:04:42.909Z,100451.41
2022-12-28T12:07:41.095Z,100458.97
2022-12-28T12:10:34.101Z,100452.22
2022-12-28T12:13:44.203Z,100459.84
2022-12-28T12:16:40.225Z,100458.97
2022-12-28T12:19:19.683Z,100461.00
2022-12-28T12:21:59.796Z,100451.56
2022-12-28T12:24:34.900Z,100436.00
2022-12-28T12:27:13.373Z,100449.69
2022-12-28T12:29:49.549Z,100460.03
2022-12-28T12:32:48.180Z,100453.59
2022-12-28T12:35:22.466Z,100458.69
2022-12-28T12:38:03.877Z,100461.03
2022-12-28T12:40:59.385Z,100442.94
2022-12-28T12:44:07.265Z,100453.94
2022-12-28T12:47:13.552Z,100453.09
2022-12-28T12:50:02.257Z,100451.41
2022-12-28T12:53:05.093Z,100452.25
2022-12-28T12:56:14.326Z,100447.00
2022-12-28T12:59:31.603Z,100441.09
2022-12-28T13:02:22.832Z,100449.19
2022-12-28T13:04:50.571Z,100444.13
2022-12-28T13:07:23.002Z,100443.63
2022-12-28T13:09:53.422Z,100447.34
2022-12-28T13:12:20.952Z,100452.25
2022-12-28T13:15:02.878Z,100440.41
2022-12-28T13:17:35.165Z,100443.09
2022-12-28T13:20:21.412Z,100442.41
2022-12-28T13:22:49.471Z,100439.38
2022-12-28T13:25:34.545Z,100441.44
2022-12-28T13:28:03.418Z,100433.97
2022-12-28T13:30:32.865Z,100436.31
2022-12-28T13:33:03.209Z,100447.69
2022-12-28T13:35:34.458Z,100430.94
2022-12-28T13:38:14.184Z,100435.31
2022-12-28T13:40:51.720Z,100429.25
2022-12-28T13:43:33.410Z,100427.66
2022-12-28T13:46:11.018Z,100428.69
2022-12-28T13:48:45.096Z,100421.97
2022-12-28T13:51:17.957Z,100421.47
2022-12-28T13:53:56.322Z,100428.56
2022-12-28T13:56:26.360Z,100424.66
2022-12-28T13:59:03.552Z,100413.34
2022-12-28T14:01:42.790Z,100432.28
2022-12-28T14:04:51.705Z,100413.31
2022-12-28T14:07:17.468Z,100428.88
2022-12-28T14:09:50.009Z,100419.59
2022-12-28T14:12:17.951Z,100419.44
2022-12-28T14:14:48.203Z,100417.59
2022-12-28T14:17:15.542Z,100421.81
2022-12-28T14:19:45.454Z,100415.38
2022-12-28T14:22:32.842Z,100420.28
2022-12-28T14:25:09.005Z,100422.16
2022-12-28T14:27:56.956Z,100422.16
2022-12-28T14:30:31.343Z,100416.06
2022-12-28T14:33:15.228Z,100413.69
2022-12-28T14:36:01.840Z,100415.22
2022-12-28T14:38:45.940Z,100412.00
2022-12-28T14:41:27.534Z,100408.97
2022-12-28T14:43:58.601Z,100396.44
2022-12-28T14:46:38.340Z,100398.47
2022-12-28T14:49:30.137Z,100405.91
2022-12-28T14:52:11.864Z,100401.50
2022-12-28T14:54:47.453Z,100405.06
2022-12-28T14:57:40.109Z,100402.53
2022-12-28T15:00:36.279Z,100401.84
2022-12-28T15:03:22.236Z,100403.72
2022-12-28T15:05:54.549Z,100402.19
2022-12-28T15:08:23.067Z,100397.13
2022-12-28T15:11:00.366Z,100391.72
2022-12-28T15:13:27.665Z,100392.72
2022-12-28T15:16:00.393Z,100392.38
2022-12-28T15:18:29.463Z,100385.94
2022-12-28T15:20:57.023Z,100384.25
2022-12-28T15:23:29.721Z,100383.38
2022-12-28T15:26:01.325Z,100377.00
2022-12-28T15:28:28.296Z,100380.56
2022-12-28T15:30:55.396Z,100383.59
2022-12-28T15:33:22.323Z,100368.53
2022-12-28T15:35:49.213Z,100380.56
2022-12-28T15:38:16.120Z,100369.72
2022-12-28T15:40:45.591Z,100374.47
2022-12-28T15:43:15.579Z,100373.78
2022-12-28T15:45:44.887Z,100370.41
2022-12-28T15:48:11.963Z,100371.06
2022-12-28T15:50:38.931Z,100373.28
2022-12-28T15:53:06.251Z,100363.28
2022-12-28T15:55:37.747Z,100366.69
2022-12-28T15:58:07.170Z,100361.44
2022-12-28T16:00:34.110Z,100366.69
2022-12-28T16:03:02.019Z,100366.34
2022-12-28T16:05:29.443Z,100360.09
2022-12-28T16:07:59.014Z,100359.72
2022-12-28T16:10:30.878Z,100355.16
2022-12-28T16:13:00.148Z,100349.78
2022-12-28T16:15:28.198Z,100348.94
2022-12-28T16:17:57.452Z,100350.13
2022-12-28T16:20:24.643Z,100343.69
2022-12-28T16:22:53.681Z,100347.91
2022-12-28T16:25:20.691Z,100335.22
2022-12-28T16:27:50.710Z,100347.22
2022-12-28T16:30:20.332Z,100343.88
2022-12-28T16:32:49.704Z,100344.72
2022-12-28T16:35:16.787Z,100337.09
2022-12-28T16:37:51.206Z,100343.53
2022-12-28T16:40:18.038Z,100347.06
2022-12-28T16:42:45.909Z,100349.94
2022-12-28T16:45:13.200Z,100344.03
2022-12-28T16:47:45.722Z,100349.44
2022-12-28T16:50:12.990Z,100342.34
2022-12-28T16:52:42.455Z,100346.41
2022-12-28T16:55:09.628Z,100340.31
2022-12-28T16:57:38.880Z,100343.19
2022-12-28T17:00:07.029Z,100345.72
2022-12-28T17:02:38.644Z,100340.66
2022-12-28T17:05:10.758Z,100347.75
2022-12-28T17:07:37.667Z,100342.16
2022-12-28T17:10:05.334Z,100350.13
2022-12-28T17:12:32.282Z,100344.38
2022-12-28T17:15:05.055Z,100331.19
2022-12-28T17:17:34.926Z,100325.41
2022-12-28T17:20:02.220Z,100317.94
2022-12-28T17:22:29.360Z,100319.63
2022-12-28T17:25:11.695Z,100310.50
2022-12-28T17:27:38.746Z,100310.22
2022-12-28T17:30:06.190Z,100308.75
2022-12-28T17:32:34.149Z,100305.06
2022-12-28T17:35:01.517Z,100301.34
2022-12-28T17:37:28.457Z,100296.94
2022-12-28T17:39:56.260Z,100299.34
2022-12-28T17:42:23.201Z,100295.13
2022-12-28T17:44:52.752Z,100291.09
2022-12-28T17:47:19.787Z,100279.13
2022-12-28T17:49:48.886Z,100281.47
2022-12-28T17:52:20.201Z,100270.41
2022-12-28T17:54:47.948Z,100273.97
2022-12-28T17:57:18.383Z,100268.38
2022-12-28T17:59:45.849Z,100252.63
2022-12-28T18:02:15.476Z,100246.63
2022-12-28T18:04:44.944Z,100244.94
2022-12-28T18:07:13.897Z,100238.22
2022-12-28T18:09:40.903Z,100225.31
2022-12-28T18:12:07.837Z,100219.47
2022-12-28T18:14:35.061Z,100210.53
2022-12-28T18:17:02.142Z,100195.44
2022-12-28T18:19:31.804Z,100182.47
2022-12-28T18:22:00.732Z,100173.38
2022-12-28T18:24:28.853Z,100180.44
2022-12-28T18:26:58.306Z,100179.75
2022-12-28T18:29:25.160Z,100173.34
2022-12-28T18:31:52.286Z,100170.91
2022-12-28T18:34:21.409Z,100177.84
2022-12-28T18:36:48.718Z,100172.97
2022-12-28T18:39:20.402Z,100172.69
2022-12-28T18:41:47.337Z,100177.06
2022-12-28T18:44:14.541Z,100163.72
2022-12-28T18:46:41.684Z,100171.97
2022-12-28T18:49:11.115Z,100178.75
2022-12-28T18:51:40.805Z,100178.75
2022-12-28T18:54:12.942Z,100166.25
2022-12-28T18:56:42.131Z,100157.31
2022-12-28T18:59:11.408Z,100169.81
2022-12-28T19:02:06.015Z,100160.47
2022-12-28T19:04:29.371Z,100159.63
2022-12-28T19:06:56.923Z,100145.31
2022-12-28T19:09:26.175Z,100161.88
2022-12-28T19:11:55.864Z,100152.09
2022-12-28T19:14:22.934Z,100146.69
2022-12-28T19:16:50.059Z,100135.38
2022-12-28T19:19:17.902Z,100139.25
2022-12-28T19:21:47.738Z,100140.59
2022-12-28T19:24:18.772Z,100130.47
2022-12-28T19:26:47.363Z,100127.25
2022-12-28T19:29:15.683Z,100116.59
2022-12-28T19:31:45.445Z,100112.22
2022-12-28T19:34:17.484Z,100124.06
2022-12-28T19:36:44.459Z,100098.03
2022-12-28T19:39:11.553Z,100091.94
2022-12-28T19:41:40.957Z,100086.19
2022-12-28T19:44:07.853Z,100100.22
2022-12-28T19:46:38.171Z,100090.75
2022-12-28T19:49:06.461Z,100101.25
2022-12-28T19:51:35.372Z,100088.22
2022-12-28T19:54:09.381Z,100094.81
2022-12-28T19:56:40.935Z,100082.81
2022-12-28T19:59:11.981Z,100092.91
2022-12-28T20:01:39.539Z,100083.44
2022-12-28T20:04:16.298Z,100085.38
2022-12-28T20:06:48.865Z,100083.34
2022-12-28T20:09:20.369Z,100086.91
2022-12-28T20:11:54.332Z,100081.34
2022-12-28T20:14:25.400Z,100075.47
2022-12-28T20:16:56.829Z,100078.34
2022-12-28T20:19:30.549Z,100070.59
2022-12-28T20:21:58.768Z,100075.50
2022-12-28T20:24:30.168Z,100080.88
2022-12-28T20:27:01.444Z,100077.69
2022-12-28T20:29:35.460Z,100076.19
2022-12-28T20:32:08.603Z,100053.91
2022-12-28T20:34:40.074Z,100050.50
2022-12-28T20:37:10.779Z,100048.50
2022-12-28T20:39:42.741Z,100042.78
2022-12-28T20:42:37.385Z,100038.72
2022-12-28T20:45:05.574Z,100041.41
2022-12-28T20:47:35.579Z,100025.56
2022-12-28T20:50:04.890Z,100043.44
2022-12-28T20:52:34.558Z,100028.91
2022-12-28T20:55:01.652Z,100007.97
2022-12-28T20:57:28.751Z,100020.78
2022-12-28T20:59:59.226Z,100013.00
2022-12-28T21:02:26.334Z,100019.75
2022-12-28T21:04:53.336Z,100006.53
2022-12-28T21:07:20.406Z,100001.84
2022-12-28T21:09:50.771Z,99992.78
2022-12-28T21:12:17.863Z,99988.72
2022-12-28T21:14:49.482Z,99977.09
2022-12-28T21:17:18.859Z,99981.47
2022-12-28T21:19:51.258Z,99984.69
2022-12-28T21:22:20.740Z,99965.72
2022-12-28T21:24:47.813Z,99977.41
2022-12-28T21:27:15.230Z,99961.06
2022-12-28T21:29:47.131Z,99958.06
2022-12-28T21:32:19.762Z,99959.13
2022-12-28T21:34:46.714Z,99957.75
2022-12-28T21:37:32.462Z,99938.84
2022-12-28T21:40:01.767Z,99929.75
2022-12-28T21:42:28.916Z,99932.75
2022-12-28T21:44:56.244Z,99931.31
2022-12-28T21:47:23.318Z,99931.97
2022-12-28T21:49:50.533Z,99919.19
2022-12-28T21:52:17.732Z,99914.13
2022-12-28T21:54:44.895Z,99920.88
2022-12-28T21:57:15.014Z,99909.47
2022-12-28T21:59:42.703Z,99906.44
2022-12-28T22:02:46.955Z,99903.88
2022-12-28T22:05:33.137Z,99902.34
2022-12-28T22:08:22.731Z,99895.59
2022-12-28T22:11:08.051Z,99886.84
2022-12-28T22:13:35.055Z,99886.34
2022-12-28T22:16:02.182Z,99881.09
2022-12-28T22:19:00.323Z,99881.16
2022-12-28T22:21:15.953Z,99887.19
2022-12-28T22:23:42.902Z,99885.78
2022-12-28T22:26:14.897Z,99887.47
2022-12-28T22:28:41.934Z,99870.53
2022-12-28T22:31:14.094Z,99873.66
2022-12-28T22:33:43.500Z,99877.72
2022-12-28T22:36:18.887Z,99866.13
2022-12-28T22:38:51.042Z,99856.53
2022-12-28T22:41:17.998Z,99867.16
2022-12-28T22:43:53.364Z,99862.28
2022-12-28T22:46:22.558Z,99858.03
2022-12-28T22:48:50.959Z,99846.25
2022-12-28T22:51:20.369Z,99839.84
2022-12-28T22:53:52.382Z,99850.91
2022-12-28T22:56:20.969Z,99843.16
2022-12-28T22:58:48.983Z,99836.16
2022-12-28T23:01:19.448Z,99840.81
2022-12-28T23:03:50.213Z,99834.28
2022-12-28T23:06:22.276Z,99853.00
2022-12-28T23:08:49.218Z,99831.81
2022-12-28T23:11:36.627Z,99836.19
2022-12-28T23:14:24.234Z,99820.16
2022-12-28T23:16:51.440Z,99829.53
2022-12-28T23:19:37.983Z,99825.56
2022-12-28T23:22:30.062Z,99823.94
2022-12-28T23:25:15.365Z,99809.53
2022-12-28T23:27:44.838Z,99819.09
2022-12-28T23:30:17.625Z,99823.72
2022-12-28T23:32:50.405Z,99827.38
2022-12-28T23:35:19.310Z,99825.28
2022-12-28T23:37:48.850Z,99827.81
2022-12-28T23:40:20.905Z,99835.56
2022-12-28T23:42:53.239Z,99837.59
2022-12-28T23:45:20.568Z,99847.66
2022-12-28T23:47:53.587Z,99824.38
2022-12-28T23:50:23.002Z,99822.59
2022-12-28T23:52:49.896Z,99814.53
2022-12-28T23:55:17.219Z,99814.91
2022-12-28T23:57:44.031Z,99818.25
